createdAt,value
2018-05-24T00:02:15.248Z,11.87
2018-05-24T00:04:42.880Z,13.20
2018-05-24T00:07:10.492Z,13.40
2018-05-24T00:09:38.576Z,13.63
2018-05-24T00:12:06.199Z,12.93
2018-05-24T00:14:33.801Z,12.10
2018-05-24T00:17:01.483Z,14.30
2018-05-24T00:19:29.111Z,12.07
2018-05-24T00:21:56.757Z,15.20
2018-05-24T00:24:24.381Z,15.20
2018-05-24T00:26:52.397Z,13.30
2018-05-24T00:29:20.003Z,13.77
2018-05-24T00:31:47.622Z,13.60
2018-05-24T00:34:15.305Z,13.70
2018-05-24T00:36:42.923Z,14.20
2018-05-24T00:39:10.619Z,13.43
2018-05-24T00:41:38.227Z,13.40
2018-05-24T00:44:06.074Z,11.20
2018-05-24T00:46:33.674Z,11.87
2018-05-24T00:49:01.271Z,14.70
2018-05-24T00:51:28.900Z,13.53
2018-05-24T00:53:56.664Z,13.70
2018-05-24T00:56:24.295Z,12.03
2018-05-24T00:58:51.899Z,15.07
2018-05-24T01:01:19.700Z,13.33
2018-05-24T01:03:47.304Z,13.93
2018-05-24T01:06:14.911Z,13.50
2018-05-24T01:08:42.542Z,13.30
2018-05-24T01:11:12.834Z,14.60
2018-05-24T01:13:40.460Z,14.00
2018-05-24T01:16:08.072Z,12.53
2018-05-24T01:18:35.709Z,14.33
2018-05-24T01:21:03.298Z,13.80
2018-05-24T01:23:30.898Z,13.47
2018-05-24T01:25:58.531Z,13.30
2018-05-24T01:28:26.140Z,12.87
2018-05-24T01:30:53.793Z,13.80
2018-05-24T01:33:21.399Z,12.90
2018-05-24T01:35:49.161Z,11.00
2018-05-24T01:38:16.754Z,12.60
2018-05-24T01:40:44.350Z,12.90
2018-05-24T01:43:11.975Z,13.00
2018-05-24T01:45:39.596Z,12.00
2018-05-24T01:48:07.250Z,12.77
2018-05-24T01:50:34.856Z,12.53
2018-05-24T01:53:02.498Z,15.50
2018-05-24T01:55:30.104Z,11.67
2018-05-24T01:57:57.707Z,12.70
2018-05-24T02:00:25.347Z,13.20
2018-05-24T02:02:52.956Z,12.37
2018-05-24T02:05:20.588Z,13.07
2018-05-24T02:07:48.187Z,12.60
2018-05-24T02:10:15.832Z,12.53
2018-05-24T02:12:43.431Z,13.10
2018-05-24T02:15:11.039Z,12.93
2018-05-24T02:17:38.726Z,12.47
2018-05-24T02:20:06.329Z,14.20
2018-05-24T02:22:33.987Z,14.77
2018-05-24T02:25:02.418Z,12.87
2018-05-24T02:27:30.243Z,14.67
2018-05-24T02:29:57.855Z,12.67
2018-05-24T02:32:25.475Z,14.00
2018-05-24T02:34:53.107Z,11.83
2018-05-24T02:37:20.706Z,11.90
2018-05-24T02:39:48.336Z,12.77
2018-05-24T02:42:15.950Z,12.50
2018-05-24T02:44:43.770Z,13.97
2018-05-24T02:47:11.390Z,14.00
2018-05-24T02:49:39.096Z,12.60
2018-05-24T02:52:06.727Z,12.87
2018-05-24T02:54:34.335Z,12.70
2018-05-24T02:57:01.974Z,13.50
2018-05-24T02:59:29.581Z,11.93
2018-05-24T03:01:57.412Z,13.30
2018-05-24T03:04:25.000Z,13.57
2018-05-24T03:06:52.624Z,11.90
2018-05-24T03:09:20.264Z,12.17
2018-05-24T03:11:47.870Z,13.33
2018-05-24T03:14:15.508Z,13.33
2018-05-24T03:16:43.128Z,14.00
2018-05-24T03:19:11.008Z,12.27
2018-05-24T03:21:38.618Z,13.83
2018-05-24T03:24:06.226Z,15.87
2018-05-24T03:26:33.848Z,16.70
2018-05-24T03:29:01.464Z,16.90
2018-05-24T03:31:29.081Z,17.73
2018-05-24T03:33:56.696Z,16.23
2018-05-24T03:36:24.579Z,16.17
2018-05-24T03:38:52.190Z,16.60
2018-05-24T03:41:19.801Z,17.80
2018-05-24T03:43:47.550Z,18.47
2018-05-24T03:46:15.094Z,18.30
2018-05-24T03:48:42.914Z,17.67
2018-05-24T03:51:11.482Z,18.30
2018-05-24T03:53:39.075Z,20.70
2018-05-24T03:56:06.703Z,19.70
2018-05-24T03:58:34.299Z,19.07
2018-05-24T04:01:13.512Z,20.57
2018-05-24T04:03:49.903Z,20.47
2018-05-24T04:06:17.532Z,19.17
2018-05-24T04:08:45.152Z,19.70
2018-05-24T04:11:12.797Z,19.50
2018-05-24T04:13:40.409Z,20.17
2018-05-24T04:16:08.030Z,20.07
2018-05-24T04:18:35.661Z,20.70
2018-05-24T04:21:03.258Z,17.27
2018-05-24T04:23:31.142Z,23.60
2018-05-24T04:25:58.784Z,20.13
2018-05-24T04:28:26.381Z,18.53
2018-05-24T04:30:54.017Z,19.07
2018-05-24T04:33:21.617Z,22.60
2018-05-24T04:35:49.239Z,20.63
2018-05-24T04:38:16.850Z,14.53
2018-05-24T04:40:44.511Z,17.10
2018-05-24T04:43:12.104Z,18.67
2018-05-24T04:45:39.711Z,16.10
2018-05-24T04:48:07.351Z,19.50
2018-05-24T04:50:34.955Z,18.80
2018-05-24T04:53:02.598Z,12.90
2018-05-24T04:55:30.191Z,13.20
2018-05-24T04:57:57.823Z,11.30
2018-05-24T05:00:25.417Z,12.77
2018-05-24T05:02:53.086Z,10.97
2018-05-24T05:05:20.671Z,12.20
2018-05-24T05:07:48.314Z,11.07
2018-05-24T05:10:15.937Z,11.43
2018-05-24T05:12:43.563Z,12.00
2018-05-24T05:15:11.215Z,11.50
2018-05-24T05:17:38.852Z,12.00
2018-05-24T05:20:06.461Z,12.07
2018-05-24T05:22:34.106Z,10.57
2018-05-24T05:25:01.718Z,9.60
2018-05-24T05:27:29.351Z,13.20
2018-05-24T05:29:56.963Z,13.10
2018-05-24T05:32:24.618Z,14.03
2018-05-24T05:34:52.228Z,12.20
2018-05-24T05:37:19.837Z,12.63
2018-05-24T05:39:47.523Z,14.83
2018-05-24T05:42:15.138Z,14.90
2018-05-24T05:44:42.782Z,16.23
2018-05-24T05:47:10.396Z,16.43
2018-05-24T05:49:38.123Z,14.17
2018-05-24T05:52:05.763Z,13.50
2018-05-24T05:54:33.341Z,16.97
2018-05-24T05:57:00.976Z,16.13
2018-05-24T05:59:28.584Z,16.33
2018-05-24T06:01:56.276Z,15.60
2018-05-24T06:04:23.842Z,17.37
2018-05-24T06:06:51.635Z,15.40
2018-05-24T06:09:19.251Z,15.50
2018-05-24T06:11:46.852Z,13.63
2018-05-24T06:14:14.474Z,15.47
2018-05-24T06:16:42.083Z,16.67
2018-05-24T06:19:09.754Z,17.73
2018-05-24T06:21:37.385Z,14.67
2018-05-24T06:24:05.038Z,14.33
2018-05-24T06:26:32.642Z,14.30
2018-05-24T06:29:00.243Z,15.00
2018-05-24T06:31:27.878Z,15.20
2018-05-24T06:33:55.476Z,14.43
2018-05-24T06:36:23.106Z,14.57
2018-05-24T06:38:50.752Z,15.07
2018-05-24T06:41:18.703Z,11.80
2018-05-24T06:43:46.297Z,13.13
2018-05-24T06:46:13.897Z,12.07
2018-05-24T06:48:41.533Z,12.27
2018-05-24T06:51:09.144Z,12.20
2018-05-24T06:53:36.780Z,12.47
2018-05-24T06:56:05.444Z,10.30
2018-05-24T06:58:33.376Z,11.77
2018-05-24T07:01:00.985Z,11.07
2018-05-24T07:03:28.651Z,10.57
2018-05-24T07:05:56.304Z,9.37
2018-05-24T07:08:23.920Z,10.60
2018-05-24T07:10:51.554Z,10.60
2018-05-24T07:13:19.162Z,11.10
2018-05-24T07:15:46.831Z,12.27
2018-05-24T07:18:14.469Z,11.10
2018-05-24T07:20:42.088Z,10.10
2018-05-24T07:23:09.706Z,7.63
2018-05-24T07:25:37.314Z,6.57
2018-05-24T07:28:04.926Z,8.67
2018-05-24T07:30:32.526Z,6.67
2018-05-24T07:33:00.156Z,8.20
2018-05-24T07:35:29.505Z,8.00
2018-05-24T07:37:57.107Z,8.53
2018-05-24T07:40:24.728Z,11.27
2018-05-24T07:42:52.327Z,10.07
2018-05-24T07:45:19.951Z,9.50
2018-05-24T07:47:47.571Z,10.60
2018-05-24T07:50:15.171Z,8.60
2018-05-24T07:52:42.798Z,9.90
2018-05-24T07:55:10.429Z,4.97
2018-05-24T07:57:38.047Z,7.73
2018-05-24T08:00:05.675Z,8.13
2018-05-24T08:02:33.293Z,9.03
2018-05-24T08:05:00.920Z,7.60
2018-05-24T08:07:28.524Z,8.80
2018-05-24T08:09:56.169Z,8.13
2018-05-24T08:12:23.763Z,9.47
2018-05-24T08:14:51.771Z,9.80
2018-05-24T08:17:19.344Z,10.00
2018-05-24T08:19:46.954Z,11.50
2018-05-24T08:22:32.641Z,11.83
2018-05-24T08:25:00.253Z,11.40
2018-05-24T08:27:28.385Z,13.07
2018-05-24T08:29:56.001Z,14.23
2018-05-24T08:32:23.607Z,14.30
2018-05-24T08:34:51.235Z,13.77
2018-05-24T08:37:19.002Z,14.50
2018-05-24T08:39:46.567Z,13.20
2018-05-24T08:42:14.167Z,11.93
2018-05-24T08:44:41.809Z,10.87
2018-05-24T08:47:09.438Z,13.87
2018-05-24T08:49:37.043Z,11.10
2018-05-24T08:52:04.694Z,13.53
2018-05-24T08:54:32.380Z,11.20
2018-05-24T08:57:00.330Z,11.47
2018-05-24T08:59:28.266Z,11.40
2018-05-24T09:01:56.270Z,11.77
2018-05-24T09:04:24.228Z,9.97
2018-05-24T09:06:51.859Z,10.27
2018-05-24T09:09:19.655Z,10.50
2018-05-24T09:11:47.262Z,9.13
2018-05-24T09:14:14.878Z,8.73
2018-05-24T09:16:42.467Z,9.93
2018-05-24T09:19:10.123Z,9.57
2018-05-24T09:21:37.726Z,8.63
2018-05-24T09:24:05.593Z,9.77
2018-05-24T09:26:33.247Z,9.40
2018-05-24T09:29:00.854Z,10.27
2018-05-24T09:31:28.523Z,9.60
2018-05-24T09:33:56.262Z,10.30
2018-05-24T09:36:24.478Z,10.60
2018-05-24T09:38:51.982Z,11.77
2018-05-24T09:41:19.587Z,11.70
2018-05-24T09:43:47.426Z,12.87
2018-05-24T09:46:15.020Z,11.93
2018-05-24T09:48:42.860Z,12.63
2018-05-24T09:51:10.489Z,10.60
2018-05-24T09:53:38.125Z,11.80
2018-05-24T09:56:05.726Z,12.93
2018-05-24T09:58:33.378Z,10.27
2018-05-24T10:01:00.981Z,11.80
2018-05-24T10:03:28.598Z,10.70
2018-05-24T10:05:56.231Z,10.87
2018-05-24T10:08:23.837Z,10.20
2018-05-24T10:10:51.478Z,10.00
2018-05-24T10:13:19.084Z,10.27
2018-05-24T10:15:47.111Z,9.17
2018-05-24T10:18:14.727Z,8.67
2018-05-24T10:20:42.353Z,9.03
2018-05-24T10:23:09.973Z,9.63
2018-05-24T10:25:37.563Z,9.27
2018-05-24T10:28:05.225Z,8.10
2018-05-24T10:30:32.881Z,8.57
2018-05-24T10:33:01.005Z,9.40
2018-05-24T10:35:28.624Z,11.00
2018-05-24T10:37:56.231Z,9.80
2018-05-24T10:40:23.861Z,8.50
2018-05-24T10:42:51.467Z,9.20
2018-05-24T10:45:19.189Z,7.97
2018-05-24T10:47:46.786Z,8.70
2018-05-24T10:50:14.429Z,8.77
2018-05-24T10:52:42.093Z,8.47
2018-05-24T10:55:09.700Z,9.63
2018-05-24T10:57:37.319Z,9.60
2018-05-24T11:00:04.914Z,8.20
2018-05-24T11:02:32.546Z,9.60
2018-05-24T11:05:00.160Z,12.03
2018-05-24T11:07:27.870Z,11.97
2018-05-24T11:09:55.817Z,12.40
2018-05-24T11:12:23.419Z,12.00
2018-05-24T11:14:51.101Z,13.13
2018-05-24T11:17:18.716Z,12.73
2018-05-24T11:19:46.334Z,12.60
2018-05-24T11:22:13.961Z,13.50
2018-05-24T11:24:41.908Z,13.60
2018-05-24T11:27:10.944Z,13.20
2018-05-24T11:29:38.797Z,11.83
2018-05-24T11:32:06.510Z,12.20
2018-05-24T11:34:34.170Z,13.13
2018-05-24T11:37:01.812Z,11.77
2018-05-24T11:39:29.404Z,9.97
2018-05-24T11:41:57.060Z,9.57
2018-05-24T11:44:24.820Z,7.77
2018-05-24T11:46:52.455Z,8.20
2018-05-24T11:49:20.072Z,7.67
2018-05-24T11:51:47.674Z,9.27
2018-05-24T11:54:15.302Z,8.30
2018-05-24T11:56:42.913Z,9.40
2018-05-24T11:59:10.550Z,9.63
2018-05-24T12:01:38.150Z,9.50
2018-05-24T12:04:07.773Z,9.60
2018-05-24T12:06:35.428Z,11.53
2018-05-24T12:09:03.030Z,11.97
2018-05-24T12:11:30.682Z,11.30
2018-05-24T12:13:58.286Z,11.93
2018-05-24T12:16:26.033Z,11.53
2018-05-24T12:18:53.667Z,13.53
2018-05-24T12:21:21.261Z,12.03
2018-05-24T12:23:49.501Z,12.60
2018-05-24T12:26:17.234Z,11.90
2018-05-24T12:28:44.985Z,12.50
2018-05-24T12:31:12.614Z,11.20
2018-05-24T12:33:40.221Z,12.47
2018-05-24T12:36:07.877Z,12.23
2018-05-24T12:38:35.522Z,11.17
2018-05-24T12:41:03.139Z,13.10
2018-05-24T12:43:30.767Z,10.70
2018-05-24T12:45:58.369Z,10.57
2018-05-24T12:48:26.054Z,8.50
2018-05-24T12:50:53.712Z,8.43
2018-05-24T12:53:21.339Z,7.10
2018-05-24T12:55:49.051Z,8.83
2018-05-24T12:58:17.264Z,7.13
2018-05-24T13:00:46.373Z,6.53
2018-05-24T13:03:14.112Z,5.67
2018-05-24T13:05:43.342Z,6.70
2018-05-24T13:08:12.170Z,3.93
2018-05-24T13:10:39.924Z,3.80
2018-05-24T13:13:07.661Z,4.50
2018-05-24T13:15:35.253Z,4.13
2018-05-24T13:18:03.534Z,3.63
2018-05-24T13:20:31.155Z,3.67
2018-05-24T13:22:58.768Z,3.70
2018-05-24T13:25:26.407Z,3.57
2018-05-24T13:27:54.049Z,4.30
2018-05-24T13:30:21.643Z,4.03
2018-05-24T13:32:49.251Z,5.17
2018-05-24T13:35:16.847Z,4.50
2018-05-24T13:37:44.478Z,4.10
2018-05-24T13:40:12.090Z,4.23
2018-05-24T13:42:39.746Z,2.93
2018-05-24T13:45:07.377Z,4.33
2018-05-24T13:47:35.040Z,5.20
2018-05-24T13:50:02.958Z,3.70
2018-05-24T13:52:30.567Z,3.90
2018-05-24T13:54:58.231Z,3.67
2018-05-24T13:57:37.689Z,4.10
2018-05-24T14:00:05.378Z,4.30
2018-05-24T14:02:33.306Z,3.47
2018-05-24T14:05:00.898Z,3.87
2018-05-24T14:07:28.708Z,3.80
2018-05-24T14:09:56.338Z,3.23
2018-05-24T14:12:23.925Z,3.27
2018-05-24T14:14:51.574Z,3.50
2018-05-24T14:17:19.171Z,3.57
2018-05-24T14:19:46.786Z,3.40
2018-05-24T14:22:14.413Z,3.23
2018-05-24T14:24:42.022Z,3.07
2018-05-24T14:27:09.635Z,3.90
2018-05-24T14:29:37.238Z,3.47
2018-05-24T14:32:05.226Z,4.23
2018-05-24T14:34:32.841Z,3.10
2018-05-24T14:37:00.446Z,4.40
2018-05-24T14:39:28.281Z,3.50
2018-05-24T14:41:55.876Z,5.00
2018-05-24T14:44:23.489Z,4.30
2018-05-24T14:46:51.108Z,5.03
2018-05-24T14:49:19.305Z,3.87
2018-05-24T14:51:46.911Z,4.27
2018-05-24T14:54:14.538Z,4.97
2018-05-24T14:56:42.284Z,4.70
2018-05-24T14:59:09.898Z,4.27
2018-05-24T15:01:37.512Z,3.77
2018-05-24T15:04:05.117Z,4.90
2018-05-24T15:06:32.785Z,5.10
2018-05-24T15:09:00.416Z,4.70
2018-05-24T15:11:28.009Z,5.53
2018-05-24T15:13:55.629Z,4.77
2018-05-24T15:16:23.228Z,5.03
2018-05-24T15:18:50.838Z,4.50
2018-05-24T15:21:18.434Z,4.80
2018-05-24T15:23:46.061Z,4.10
2018-05-24T15:26:13.722Z,3.90
2018-05-24T15:28:41.322Z,4.47
2018-05-24T15:31:08.954Z,3.20
2018-05-24T15:33:36.738Z,3.57
2018-05-24T15:36:04.375Z,2.70
2018-05-24T15:38:31.973Z,4.00
2018-05-24T15:40:59.612Z,3.60
2018-05-24T15:43:27.226Z,3.90
2018-05-24T15:45:54.858Z,3.43
2018-05-24T15:48:22.476Z,4.30
2018-05-24T15:50:50.115Z,3.53
2018-05-24T15:53:17.763Z,3.50
2018-05-24T15:55:45.369Z,3.20
2018-05-24T15:58:13.293Z,4.03
2018-05-24T16:00:41.043Z,3.17
2018-05-24T16:03:08.633Z,3.33
2018-05-24T16:05:36.263Z,3.87
2018-05-24T16:08:03.853Z,3.10
2018-05-24T16:10:32.108Z,3.23
2018-05-24T16:12:59.707Z,3.40
2018-05-24T16:15:27.594Z,3.63
2018-05-24T16:17:55.190Z,2.73
2018-05-24T16:20:22.795Z,3.23
2018-05-24T16:22:50.413Z,3.63
2018-05-24T16:25:18.145Z,3.20
2018-05-24T16:27:45.802Z,3.57
2018-05-24T16:30:13.419Z,4.57
2018-05-24T16:32:41.066Z,3.57
2018-05-24T16:35:08.675Z,3.70
2018-05-24T16:37:36.299Z,4.60
2018-05-24T16:40:03.920Z,3.30
2018-05-24T16:42:31.507Z,3.50
2018-05-24T16:44:59.129Z,3.30
2018-05-24T16:47:26.733Z,3.93
2018-05-24T16:49:54.659Z,3.40
2018-05-24T16:52:22.273Z,3.00
2018-05-24T16:54:49.895Z,2.97
2018-05-24T16:57:17.654Z,3.00
2018-05-24T16:59:45.283Z,2.93
2018-05-24T17:02:12.904Z,2.77
2018-05-24T17:04:40.494Z,2.73
2018-05-24T17:07:08.299Z,2.57
2018-05-24T17:09:35.909Z,2.73
2018-05-24T17:12:03.518Z,3.20
2018-05-24T17:14:31.176Z,4.50
2018-05-24T17:16:58.772Z,4.47
2018-05-24T17:19:26.414Z,3.20
2018-05-24T17:21:54.003Z,2.67
2018-05-24T17:24:21.654Z,3.20
2018-05-24T17:26:49.278Z,3.10
2018-05-24T17:29:17.168Z,2.80
2018-05-24T17:31:44.825Z,3.20
2018-05-24T17:34:12.424Z,3.23
2018-05-24T17:36:40.054Z,2.90
2018-05-24T17:39:07.651Z,2.70
2018-05-24T17:41:35.336Z,2.63
2018-05-24T17:44:02.954Z,2.63
2018-05-24T17:46:30.586Z,3.00
2018-05-24T17:48:58.179Z,3.33
2018-05-24T17:51:25.807Z,3.63
2018-05-24T17:53:53.430Z,3.63
2018-05-24T17:56:21.063Z,2.67
2018-05-24T17:58:48.660Z,2.80
2018-05-24T18:01:16.449Z,2.33
2018-05-24T18:03:44.055Z,2.80
2018-05-24T18:06:11.658Z,2.20
2018-05-24T18:08:39.277Z,3.10
2018-05-24T18:11:06.892Z,3.20
2018-05-24T18:13:34.637Z,2.70
2018-05-24T18:16:02.249Z,2.83
2018-05-24T18:18:29.852Z,2.80
2018-05-24T18:20:57.495Z,3.13
2018-05-24T18:23:25.099Z,3.90
2018-05-24T18:25:52.723Z,3.10
2018-05-24T18:28:20.343Z,3.63
2018-05-24T18:30:48.017Z,3.67
2018-05-24T18:33:15.614Z,2.47
2018-05-24T18:35:43.271Z,3.57
2018-05-24T18:38:10.988Z,3.20
2018-05-24T18:40:38.593Z,3.67
2018-05-24T18:43:06.219Z,3.73
2018-05-24T18:45:33.814Z,3.67
2018-05-24T18:48:01.738Z,3.10
2018-05-24T18:50:29.404Z,3.30
2018-05-24T18:52:57.040Z,4.27
2018-05-24T18:55:24.671Z,3.90
2018-05-24T18:57:52.370Z,3.37
2018-05-24T19:00:20.027Z,3.80
2018-05-24T19:02:47.630Z,4.00
2018-05-24T19:05:15.673Z,3.97
2018-05-24T19:07:43.273Z,4.93
2018-05-24T19:10:10.875Z,4.17
2018-05-24T19:12:38.510Z,4.30
2018-05-24T19:15:06.125Z,4.10
2018-05-24T19:17:33.744Z,3.40
2018-05-24T19:20:01.348Z,4.10
2018-05-24T19:22:29.027Z,4.67
2018-05-24T19:24:56.635Z,4.07
2018-05-24T19:27:24.253Z,4.23
2018-05-24T19:29:51.884Z,5.30
2018-05-24T19:32:19.489Z,4.30
2018-05-24T19:34:47.130Z,5.07
2018-05-24T19:37:14.734Z,5.50
2018-05-24T19:39:42.333Z,5.57
2018-05-24T19:42:09.966Z,6.00
2018-05-24T19:44:37.570Z,6.10
2018-05-24T19:47:05.562Z,6.93
2018-05-24T19:49:33.169Z,6.00
2018-05-24T19:52:00.932Z,5.87
2018-05-24T19:54:28.550Z,6.33
2018-05-24T19:56:56.155Z,5.83
2018-05-24T19:59:23.961Z,6.00
2018-05-24T20:01:51.562Z,6.30
2018-05-24T20:04:19.242Z,6.40
2018-05-24T20:06:48.671Z,7.03
2018-05-24T20:09:16.299Z,6.43
2018-05-24T20:11:43.996Z,7.07
2018-05-24T20:14:11.663Z,7.40
2018-05-24T20:16:39.302Z,7.20
2018-05-24T20:19:06.944Z,7.10
2018-05-24T20:21:35.714Z,7.53
2018-05-24T20:24:03.995Z,6.50
2018-05-24T20:26:31.795Z,8.10
2018-05-24T20:28:59.428Z,8.00
2018-05-24T20:31:27.370Z,7.97
2018-05-24T20:33:54.967Z,7.93
2018-05-24T20:36:22.927Z,8.70
2018-05-24T20:38:50.527Z,8.43
2018-05-24T20:41:18.141Z,7.50
2018-05-24T20:43:45.901Z,7.77
2018-05-24T20:46:13.519Z,9.27
2018-05-24T20:48:41.219Z,8.90
2018-05-24T20:51:08.848Z,8.27
2018-05-24T20:53:36.449Z,8.10
2018-05-24T20:56:04.343Z,8.10
2018-05-24T20:58:31.950Z,7.53
2018-05-24T21:00:59.777Z,8.37
2018-05-24T21:03:27.532Z,8.37
2018-05-24T21:05:55.788Z,8.43
2018-05-24T21:08:23.406Z,8.67
2018-05-24T21:10:51.031Z,8.73
2018-05-24T21:13:18.840Z,8.53
2018-05-24T21:15:46.570Z,8.50
2018-05-24T21:18:14.223Z,9.13
2018-05-24T21:20:41.843Z,7.63
2018-05-24T21:23:09.447Z,7.73
2018-05-24T21:25:37.067Z,7.63
2018-05-24T21:28:04.680Z,10.00
2018-05-24T21:30:32.277Z,8.33
2018-05-24T21:32:59.935Z,9.20
2018-05-24T21:35:27.533Z,8.23
2018-05-24T21:37:55.148Z,8.97
2018-05-24T21:40:22.782Z,9.50
2018-05-24T21:42:50.415Z,10.60
2018-05-24T21:45:18.062Z,9.20
2018-05-24T21:47:45.671Z,9.73
2018-05-24T21:50:13.265Z,9.77
2018-05-24T21:52:40.951Z,8.97
2018-05-24T21:55:08.550Z,8.70
2018-05-24T21:57:36.199Z,8.30
2018-05-24T22:00:03.803Z,8.87
2018-05-24T22:02:31.485Z,9.03
2018-05-24T22:04:59.096Z,9.23
2018-05-24T22:07:26.757Z,9.23
2018-05-24T22:09:54.348Z,8.57
2018-05-24T22:12:21.947Z,9.93
2018-05-24T22:14:49.802Z,9.17
2018-05-24T22:17:17.410Z,9.70
2018-05-24T22:19:45.006Z,9.60
2018-05-24T22:22:12.667Z,10.23
2018-05-24T22:24:40.270Z,10.07
2018-05-24T22:27:08.095Z,9.83
2018-05-24T22:29:35.722Z,9.80
2018-05-24T22:32:03.322Z,10.77
2018-05-24T22:34:30.982Z,9.87
2018-05-24T22:36:58.626Z,9.40
2018-05-24T22:39:26.295Z,9.43
2018-05-24T22:41:53.920Z,9.63
2018-05-24T22:44:21.538Z,9.53
2018-05-24T22:46:49.179Z,10.87
2018-05-24T22:49:16.776Z,10.97
2018-05-24T22:51:44.827Z,9.87
2018-05-24T22:54:12.454Z,11.67
2018-05-24T22:56:40.110Z,10.17
2018-05-24T22:59:07.727Z,10.50
2018-05-24T23:01:36.226Z,12.27
2018-05-24T23:04:04.205Z,11.47
2018-05-24T23:06:31.819Z,10.50
2018-05-24T23:08:59.412Z,9.67
2018-05-24T23:11:27.033Z,10.20
2018-05-24T23:13:54.658Z,12.03
2018-05-24T23:16:22.285Z,9.90
2018-05-24T23:18:49.903Z,10.67
2018-05-24T23:21:17.510Z,10.67
2018-05-24T23:23:45.135Z,11.50
2018-05-24T23:26:12.757Z,12.20
2018-05-24T23:28:40.382Z,11.10
2018-05-24T23:31:08.003Z,11.20
2018-05-24T23:33:35.630Z,10.50
2018-05-24T23:36:03.243Z,11.83
2018-05-24T23:38:30.882Z,10.20
2018-05-24T23:40:58.493Z,10.87
2018-05-24T23:43:26.125Z,10.40
2018-05-24T23:45:53.797Z,11.10
2018-05-24T23:48:21.520Z,10.43
2018-05-24T23:50:49.245Z,10.70
2018-05-24T23:53:16.975Z,10.23
2018-05-24T23:55:44.596Z,12.00
2018-05-24T23:58:12.354Z,11.60
